Time;durP1;ratioP1;P1;durP2;ratioP2;P2;SDS_P1;SDS_P2;PMS_P1;PMS_P2;Temp;Humidity;BMP_temperature;BMP_pressure;BME280_temperature;BME280_humidity;BME280_pressure;Samples;Min_cycle;Max_cycle;Signal;HPM_P1;HPM_P2
2022/08/31 00:04:52;;;;;;;3.50;3.22;;;;;;;;;;5061722;28;20211;-69
2022/08/31 00:07:18;;;;;;;3.90;3.38;;;;;;;;;;5061763;28;20197;-69
2022/08/31 00:09:46;;;;;;;4.28;3.50;;;;;;;;;;5061525;28;20203;-69
2022/08/31 00:12:13;;;;;;;5.05;3.17;;;;;;;;;;5062965;28;20201;-69
2022/08/31 00:14:39;;;;;;;3.30;3.10;;;;;;;;;;5065511;28;20231;-69
2022/08/31 00:17:05;;;;;;;3.58;3.17;;;;;;;;;;5065657;28;20219;-69
2022/08/31 00:19:31;;;;;;;3.75;3.53;;;;;;;;;;5065400;28;20428;-69
2022/08/31 00:21:58;;;;;;;4.35;3.50;;;;;;;;;;5065551;28;20203;-69
2022/08/31 00:24:24;;;;;;;2.95;2.85;;;;;;;;;;5065421;28;20199;-69
2022/08/31 00:26:51;;;;;;;4.70;3.90;;;;;;;;;;5065429;28;20212;-69
2022/08/31 00:29:18;;;;;;;3.88;3.60;;;;;;;;;;5065172;28;20219;-69
2022/08/31 00:31:44;;;;;;;5.38;3.28;;;;;;;;;;5065437;28;20203;-69
2022/08/31 00:34:10;;;;;;;3.60;3.40;;;;;;;;;;5065652;28;20224;-70
2022/08/31 00:36:37;;;;;;;4.22;3.70;;;;;;;;;;5065275;28;20403;-69
2022/08/31 00:39:04;;;;;;;4.50;3.80;;;;;;;;;;5064979;28;20572;-69
2022/08/31 00:41:34;;;;;;;3.88;3.58;;;;;;;;;;5065316;28;20410;-69
2022/08/31 00:44:03;;;;;;;3.92;3.55;;;;;;;;;;5065145;28;20196;-69
2022/08/31 00:46:31;;;;;;;4.00;3.50;;;;;;;;;;5065082;28;20235;-69
2022/08/31 00:48:59;;;;;;;3.80;3.58;;;;;;;;;;5064777;28;20520;-69
2022/08/31 00:51:27;;;;;;;4.32;3.88;;;;;;;;;;5064929;28;20197;-69
2022/08/31 00:53:53;;;;;;;5.53;4.13;;;;;;;;;;5065171;28;20208;-69
2022/08/31 00:56:20;;;;;;;5.22;3.60;;;;;;;;;;5064821;28;20212;-69
2022/08/31 00:58:47;;;;;;;4.93;3.65;;;;;;;;;;5064892;28;20204;-69
2022/08/31 01:01:18;;;;;;;3.83;3.53;;;;;;;;;;5064723;28;20204;-69
2022/08/31 01:03:45;;;;;;;8.10;3.30;;;;;;;;;;5064660;28;20225;-69
2022/08/31 01:06:11;;;;;;;4.05;3.42;;;;;;;;;;5064551;28;20220;-69
2022/08/31 01:08:37;;;;;;;4.95;3.50;;;;;;;;;;5065030;28;20197;-69
2022/08/31 01:11:04;;;;;;;4.32;3.80;;;;;;;;;;5064286;28;20197;-69
2022/08/31 01:13:30;;;;;;;4.70;4.10;;;;;;;;;;5064621;28;20371;-69
2022/08/31 01:15:58;;;;;;;5.72;3.63;;;;;;;;;;5064501;28;20278;-69
2022/08/31 01:18:26;;;;;;;4.70;3.85;;;;;;;;;;5064324;28;20396;-69
2022/08/31 01:20:58;;;;;;;7.75;3.78;;;;;;;;;;5064187;28;20216;-69
2022/08/31 01:23:27;;;;;;;19.23;5.63;;;;;;;;;;5063653;28;20394;-69
2022/08/31 01:25:55;;;;;;;12.25;5.88;;;;;;;;;;5063364;28;20193;-69
2022/08/31 01:28:21;;;;;;;13.73;5.45;;;;;;;;;;5064210;28;20201;-69
2022/08/31 01:30:57;;;;;;;16.88;6.18;;;;;;;;;;5064021;28;20201;-69
2022/08/31 01:33:23;;;;;;;16.95;6.40;;;;;;;;;;5064367;28;20197;-69
2022/08/31 01:35:49;;;;;;;9.73;6.35;;;;;;;;;;5064163;28;20219;-69
2022/08/31 01:38:16;;;;;;;14.55;7.05;;;;;;;;;;5064209;28;20197;-69
2022/08/31 01:40:47;;;;;;;10.90;7.00;;;;;;;;;;5063956;28;20201;-69
2022/08/31 01:43:13;;;;;;;13.18;6.82;;;;;;;;;;5064057;28;20204;-69
2022/08/31 01:45:39;;;;;;;14.27;6.75;;;;;;;;;;5064233;28;20193;-69
2022/08/31 01:48:05;;;;;;;19.92;7.85;;;;;;;;;;5063951;28;20197;-69
2022/08/31 01:50:32;;;;;;;9.63;7.22;;;;;;;;;;5063732;28;20193;-69
2022/08/31 01:52:58;;;;;;;9.35;6.45;;;;;;;;;;5063876;28;20389;-69
2022/08/31 01:55:24;;;;;;;11.05;7.15;;;;;;;;;;5063646;28;20228;-69
2022/08/31 01:57:52;;;;;;;13.90;8.05;;;;;;;;;;5063579;28;20205;-69
2022/08/31 02:00:18;;;;;;;14.45;7.50;;;;;;;;;;5063516;28;20204;-69
2022/08/31 02:02:44;;;;;;;11.93;8.23;;;;;;;;;;5063525;28;20203;-69
2022/08/31 02:05:10;;;;;;;11.38;7.93;;;;;;;;;;5063477;28;20532;-68
2022/08/31 02:08:14;;;;;;;11.82;7.80;;;;;;;;;;5063577;28;20201;-69
2022/08/31 02:10:41;;;;;;;13.73;8.27;;;;;;;;;;5062766;28;20213;-68
2022/08/31 02:13:09;;;;;;;12.75;7.60;;;;;;;;;;5063644;28;20243;-69
2022/08/31 02:15:37;;;;;;;14.05;7.75;;;;;;;;;;5063438;28;20259;-69
2022/08/31 02:18:03;;;;;;;11.68;7.57;;;;;;;;;;5063219;28;20200;-69
2022/08/31 02:20:29;;;;;;;12.30;7.35;;;;;;;;;;5063085;28;20189;-69
2022/08/31 02:22:57;;;;;;;12.70;7.32;;;;;;;;;;5063641;28;20208;-69
2022/08/31 02:25:23;;;;;;;8.48;6.93;;;;;;;;;;5063154;28;20192;-69
2022/08/31 02:27:50;;;;;;;11.18;7.85;;;;;;;;;;5063319;28;20255;-69
2022/08/31 02:30:18;;;;;;;13.25;7.85;;;;;;;;;;5062916;28;20197;-69
2022/08/31 02:32:45;;;;;;;7.78;7.07;;;;;;;;;;5063080;28;20432;-69
2022/08/31 02:35:11;;;;;;;8.40;7.05;;;;;;;;;;5062624;28;20569;-69
2022/08/31 02:37:37;;;;;;;10.88;7.70;;;;;;;;;;5062881;28;20204;-69
2022/08/31 02:40:03;;;;;;;8.85;7.75;;;;;;;;;;5062917;28;20428;-69
2022/08/31 02:42:30;;;;;;;11.23;8.05;;;;;;;;;;5062933;28;20204;-69
2022/08/31 02:44:56;;;;;;;11.02;8.80;;;;;;;;;;5062855;28;20197;-69
2022/08/31 02:47:26;;;;;;;11.80;8.35;;;;;;;;;;5062882;28;20251;-69
2022/08/31 02:49:52;;;;;;;9.05;8.18;;;;;;;;;;5062580;28;20200;-69
2022/08/31 02:52:18;;;;;;;16.00;8.00;;;;;;;;;;5062650;28;20197;-69
2022/08/31 02:54:44;;;;;;;9.75;8.40;;;;;;;;;;5062801;28;20497;-69
2022/08/31 02:57:11;;;;;;;9.30;7.90;;;;;;;;;;5062589;28;20208;-69
2022/08/31 02:59:37;;;;;;;10.68;7.93;;;;;;;;;;5062382;28;20197;-69
2022/08/31 03:02:04;;;;;;;8.82;7.95;;;;;;;;;;5062662;28;20551;-69
2022/08/31 03:04:31;;;;;;;9.15;7.65;;;;;;;;;;5062478;28;20204;-69
2022/08/31 03:06:57;;;;;;;8.27;7.25;;;;;;;;;;5062362;28;20558;-69
2022/08/31 03:09:24;;;;;;;9.30;8.15;;;;;;;;;;5062153;28;20203;-69
2022/08/31 03:11:50;;;;;;;10.90;7.68;;;;;;;;;;5062511;28;20367;-69
2022/08/31 03:14:16;;;;;;;10.25;8.43;;;;;;;;;;5062410;28;20377;-69
2022/08/31 03:16:43;;;;;;;8.65;7.75;;;;;;;;;;5062259;28;20217;-69
2022/08/31 03:19:09;;;;;;;8.57;7.78;;;;;;;;;;5062067;28;20197;-69
2022/08/31 03:21:37;;;;;;;9.25;7.70;;;;;;;;;;5062566;28;20197;-69
2022/08/31 03:24:03;;;;;;;11.20;8.55;;;;;;;;;;5062299;28;20200;-69
2022/08/31 03:26:30;;;;;;;15.50;9.15;;;;;;;;;;5062263;28;20299;-69
2022/08/31 03:28:56;;;;;;;11.88;8.93;;;;;;;;;;5061876;28;20201;-69
2022/08/31 03:31:23;;;;;;;11.50;9.40;;;;;;;;;;5062053;28;20204;-69
2022/08/31 03:33:49;;;;;;;9.95;8.50;;;;;;;;;;5061971;28;20530;-69
2022/08/31 03:36:16;;;;;;;11.70;9.27;;;;;;;;;;5062255;28;20225;-69
2022/08/31 03:38:43;;;;;;;11.00;8.23;;;;;;;;;;5062111;28;20220;-69
2022/08/31 03:41:11;;;;;;;8.73;7.85;;;;;;;;;;5061903;28;20197;-68
2022/08/31 03:43:37;;;;;;;18.27;8.93;;;;;;;;;;5062025;28;20392;-69
2022/08/31 03:46:04;;;;;;;10.27;8.05;;;;;;;;;;5061935;28;20193;-69
2022/08/31 03:48:30;;;;;;;12.57;8.90;;;;;;;;;;5065085;28;20220;-69
2022/08/31 03:50:56;;;;;;;12.07;9.30;;;;;;;;;;5066083;28;20427;-69
2022/08/31 03:53:23;;;;;;;8.80;7.97;;;;;;;;;;5066262;28;20201;-69
2022/08/31 03:55:50;;;;;;;12.32;9.55;;;;;;;;;;5066023;28;20216;-69
2022/08/31 03:58:16;;;;;;;10.63;9.48;;;;;;;;;;5065979;28;20197;-69
2022/08/31 04:00:43;;;;;;;12.90;10.90;;;;;;;;;;5065776;28;20554;-69
2022/08/31 04:03:09;;;;;;;24.15;16.10;;;;;;;;;;5065772;28;20197;-69
2022/08/31 04:05:36;;;;;;;15.38;10.13;;;;;;;;;;5065981;28;20212;-69
2022/08/31 04:08:03;;;;;;;12.02;8.73;;;;;;;;;;5066027;28;20201;-69
2022/08/31 04:10:29;;;;;;;10.95;9.82;;;;;;;;;;5065656;28;20197;-69
2022/08/31 04:12:57;;;;;;;11.68;9.65;;;;;;;;;;5065734;28;20212;-69
2022/08/31 04:15:23;;;;;;;9.98;9.07;;;;;;;;;;5065484;28;20217;-68
2022/08/31 04:17:49;;;;;;;10.23;8.57;;;;;;;;;;5065509;28;20205;-68
2022/08/31 04:20:16;;;;;;;14.15;11.30;;;;;;;;;;5065554;28;20243;-68
2022/08/31 04:22:42;;;;;;;11.77;9.18;;;;;;;;;;5065972;28;20202;-68
2022/08/31 04:25:09;;;;;;;11.57;9.32;;;;;;;;;;5065526;28;20220;-68
2022/08/31 04:27:36;;;;;;;12.95;10.77;;;;;;;;;;5065454;28;20420;-68
2022/08/31 04:30:05;;;;;;;15.65;10.35;;;;;;;;;;5065079;28;20235;-67
2022/08/31 04:32:31;;;;;;;14.40;10.30;;;;;;;;;;5065128;28;20239;-67
2022/08/31 04:34:57;;;;;;;12.30;9.75;;;;;;;;;;5065236;28;20201;-67
2022/08/31 04:37:23;;;;;;;12.90;11.40;;;;;;;;;;5065330;28;20197;-69
2022/08/31 04:39:50;;;;;;;15.82;10.93;;;;;;;;;;5064841;28;20201;-67
2022/08/31 04:42:16;;;;;;;15.48;10.70;;;;;;;;;;5065022;28;20204;-68
2022/08/31 04:44:42;;;;;;;14.13;11.00;;;;;;;;;;5065012;28;20201;-67
2022/08/31 04:47:10;;;;;;;14.15;10.45;;;;;;;;;;5065251;28;20200;-68
2022/08/31 04:49:36;;;;;;;13.68;10.95;;;;;;;;;;5064778;28;20203;-67
2022/08/31 04:52:03;;;;;;;17.20;12.15;;;;;;;;;;5065138;28;20197;-67
2022/08/31 04:54:29;;;;;;;13.85;11.55;;;;;;;;;;5065013;28;20200;-67
2022/08/31 04:56:57;;;;;;;16.95;12.27;;;;;;;;;;5064788;28;20415;-67
2022/08/31 04:59:26;;;;;;;14.10;11.43;;;;;;;;;;5064263;28;20381;-68
2022/08/31 05:01:53;;;;;;;11.90;10.70;;;;;;;;;;5064619;28;20201;-68
2022/08/31 05:04:22;;;;;;;11.85;10.60;;;;;;;;;;5064277;28;20204;-67
2022/08/31 05:06:49;;;;;;;11.90;10.77;;;;;;;;;;5064113;28;20213;-67
2022/08/31 05:09:17;;;;;;;12.38;10.68;;;;;;;;;;5064161;28;20197;-67
2022/08/31 05:11:44;;;;;;;14.25;10.68;;;;;;;;;;5064202;28;20197;-67
2022/08/31 05:14:11;;;;;;;15.65;10.75;;;;;;;;;;5064227;28;20201;-67
2022/08/31 05:16:37;;;;;;;16.67;11.05;;;;;;;;;;5064249;28;20255;-67
2022/08/31 05:19:04;;;;;;;11.40;10.30;;;;;;;;;;5063866;28;20382;-67
2022/08/31 05:21:33;;;;;;;11.98;10.63;;;;;;;;;;5064275;28;20268;-67
2022/08/31 05:24:00;;;;;;;14.63;11.05;;;;;;;;;;5064058;28;20201;-67
2022/08/31 05:26:28;;;;;;;13.23;10.80;;;;;;;;;;5063940;28;20515;-67
2022/08/31 05:28:55;;;;;;;11.88;10.68;;;;;;;;;;5063990;28;20450;-67
2022/08/31 05:31:22;;;;;;;15.52;12.10;;;;;;;;;;5064143;28;20501;-67
2022/08/31 05:33:48;;;;;;;14.05;11.57;;;;;;;;;;5064153;28;20215;-67
2022/08/31 05:36:15;;;;;;;17.83;11.38;;;;;;;;;;5063685;28;20440;-67
2022/08/31 05:38:43;;;;;;;13.23;11.65;;;;;;;;;;5064138;28;20268;-67
2022/08/31 05:41:09;;;;;;;13.07;11.70;;;;;;;;;;5063464;28;20205;-67
2022/08/31 05:43:36;;;;;;;12.52;11.32;;;;;;;;;;5063830;28;20380;-67
2022/08/31 05:46:04;;;;;;;13.82;12.48;;;;;;;;;;5063762;28;20193;-67
2022/08/31 05:48:32;;;;;;;13.88;12.48;;;;;;;;;;5063694;28;20365;-67
2022/08/31 05:51:00;;;;;;;14.35;12.45;;;;;;;;;;5063058;28;20204;-67
2022/08/31 05:53:26;;;;;;;17.08;13.50;;;;;;;;;;5063377;28;20213;-67
2022/08/31 05:55:59;;;;;;;13.25;11.95;;;;;;;;;;5063176;28;20213;-67
2022/08/31 05:58:25;;;;;;;14.48;12.57;;;;;;;;;;5063567;28;20204;-67
2022/08/31 06:00:51;;;;;;;16.60;12.32;;;;;;;;;;5063142;28;20254;-67
2022/08/31 06:03:17;;;;;;;13.23;11.82;;;;;;;;;;5063251;28;20228;-67
2022/08/31 06:05:44;;;;;;;15.93;11.70;;;;;;;;;;5062996;28;20217;-67
2022/08/31 06:08:10;;;;;;;13.40;10.73;;;;;;;;;;5062973;28;20211;-67
2022/08/31 06:10:37;;;;;;;12.60;11.07;;;;;;;;;;5062084;28;20235;-67
2022/08/31 06:13:05;;;;;;;12.27;11.02;;;;;;;;;;5063237;28;20374;-67
2022/08/31 06:15:31;;;;;;;12.52;11.23;;;;;;;;;;5062930;28;20197;-67
2022/08/31 06:17:57;;;;;;;11.93;10.45;;;;;;;;;;5062896;28;20201;-67
2022/08/31 06:20:24;;;;;;;12.27;11.00;;;;;;;;;;5062641;28;20232;-67
2022/08/31 06:22:50;;;;;;;13.82;10.73;;;;;;;;;;5062993;28;20201;-67
2022/08/31 06:25:18;;;;;;;11.00;9.88;;;;;;;;;;5062887;28;20225;-67
2022/08/31 06:27:47;;;;;;;13.25;10.77;;;;;;;;;;5063075;28;20194;-67
2022/08/31 06:30:20;;;;;;;14.80;10.68;;;;;;;;;;5049083;28;20429;-60
2022/08/31 06:32:47;;;;;;;12.40;11.10;;;;;;;;;;5043438;28;20220;-60
2022/08/31 06:35:13;;;;;;;11.52;10.30;;;;;;;;;;5041946;28;20225;-59
2022/08/31 06:37:39;;;;;;;13.05;11.07;;;;;;;;;;5036616;28;20465;-60
2022/08/31 06:40:06;;;;;;;12.02;10.88;;;;;;;;;;5038495;28;20252;-60
2022/08/31 06:42:32;;;;;;;12.40;11.13;;;;;;;;;;5036842;28;20198;-60
2022/08/31 06:44:59;;;;;;;12.20;11.00;;;;;;;;;;5036748;28;20256;-60
2022/08/31 06:47:26;;;;;;;13.18;11.13;;;;;;;;;;5036582;28;20197;-59
2022/08/31 06:49:53;;;;;;;14.27;10.82;;;;;;;;;;5056416;28;20201;-60
2022/08/31 06:52:19;;;;;;;11.73;10.57;;;;;;;;;;5056244;28;20522;-60
2022/08/31 06:54:46;;;;;;;12.35;11.05;;;;;;;;;;5056561;28;20251;-62
2022/08/31 06:57:12;;;;;;;12.35;11.15;;;;;;;;;;5055328;28;20240;-64
2022/08/31 06:59:38;;;;;;;12.65;11.45;;;;;;;;;;5046202;28;20201;-61
2022/08/31 07:02:05;;;;;;;15.52;12.43;;;;;;;;;;5056194;28;20247;-62
2022/08/31 07:04:33;;;;;;;12.20;10.95;;;;;;;;;;5056694;28;20263;-63
2022/08/31 07:06:59;;;;;;;11.95;10.57;;;;;;;;;;5056738;28;20209;-62
2022/08/31 07:09:26;;;;;;;14.73;11.43;;;;;;;;;;5051245;28;20255;-62
2022/08/31 07:11:52;;;;;;;14.07;12.63;;;;;;;;;;5055496;28;20213;-63
2022/08/31 07:14:20;;;;;;;14.35;11.95;;;;;;;;;;5055986;28;20516;-63
2022/08/31 07:16:47;;;;;;;16.30;13.38;;;;;;;;;;5055158;28;20571;-63
2022/08/31 07:19:14;;;;;;;14.95;12.25;;;;;;;;;;5054938;28;20217;-62
2022/08/31 07:21:43;;;;;;;11.63;9.88;;;;;;;;;;5055155;28;20217;-63
2022/08/31 07:24:09;;;;;;;10.88;9.77;;;;;;;;;;5055434;28;20598;-63
2022/08/31 07:26:37;;;;;;;10.45;9.52;;;;;;;;;;5044834;28;20548;-64
2022/08/31 07:29:05;;;;;;;12.98;9.93;;;;;;;;;;5034790;28;20236;-62
2022/08/31 07:31:39;;;;;;;11.48;9.02;;;;;;;;;;5035424;28;20209;-62
2022/08/31 07:34:06;;;;;;;17.77;9.48;;;;;;;;;;5036017;28;20213;-62
2022/08/31 07:36:33;;;;;;;12.40;9.68;;;;;;;;;;5034941;28;20477;-62
2022/08/31 07:44:28;;;;;;;12.02;9.88;;;;;;;;;;5035524;28;20252;-62
2022/08/31 07:46:55;;;;;;;11.35;9.40;;;;;;;;;;5035570;28;20224;-62
2022/08/31 07:49:21;;;;;;;10.88;9.77;;;;;;;;;;5035860;28;20218;-62
2022/08/31 07:51:49;;;;;;;10.77;9.77;;;;;;;;;;5036011;28;20224;-61
2022/08/31 07:54:19;;;;;;;11.50;9.95;;;;;;;;;;5039564;28;20289;-60
2022/08/31 07:56:45;;;;;;;11.32;10.13;;;;;;;;;;5047460;28;20228;-60
2022/08/31 07:59:13;;;;;;;15.23;10.48;;;;;;;;;;5035526;28;20263;-62
2022/08/31 08:01:42;;;;;;;9.95;8.85;;;;;;;;;;5035058;28;20275;-61
2022/08/31 08:04:08;;;;;;;10.80;9.52;;;;;;;;;;5035564;28;20220;-62
2022/08/31 08:06:35;;;;;;;10.10;9.10;;;;;;;;;;5035251;28;20225;-61
2022/08/31 08:09:06;;;;;;;10.77;9.70;;;;;;;;;;5034853;28;20243;-62
2022/08/31 08:11:34;;;;;;;10.23;9.27;;;;;;;;;;5035359;28;20214;-62
2022/08/31 08:14:00;;;;;;;11.75;9.55;;;;;;;;;;5035514;28;20213;-62
2022/08/31 08:16:27;;;;;;;13.27;9.82;;;;;;;;;;5035513;28;20539;-62
2022/08/31 08:18:53;;;;;;;10.05;8.90;;;;;;;;;;5035424;28;20215;-62
2022/08/31 08:21:19;;;;;;;10.20;8.88;;;;;;;;;;5034850;28;20222;-62
2022/08/31 08:23:45;;;;;;;11.38;9.27;;;;;;;;;;5036418;28;20213;-62
2022/08/31 08:26:12;;;;;;;14.70;10.25;;;;;;;;;;5047083;28;20209;-62
2022/08/31 08:28:39;;;;;;;12.90;9.27;;;;;;;;;;5035507;28;20541;-61
2022/08/31 08:31:06;;;;;;;9.38;8.40;;;;;;;;;;5034854;28;20259;-61
2022/08/31 08:33:33;;;;;;;9.55;8.57;;;;;;;;;;5048591;28;20520;-63
2022/08/31 08:36:01;;;;;;;11.80;9.23;;;;;;;;;;5045075;28;20233;-64
2022/08/31 08:38:29;;;;;;;12.63;9.18;;;;;;;;;;5038955;28;20240;-63
2022/08/31 08:40:56;;;;;;;9.65;8.75;;;;;;;;;;5038218;28;20521;-62
2022/08/31 08:43:27;;;;;;;13.63;9.70;;;;;;;;;;5038733;28;20213;-63
2022/08/31 08:45:54;;;;;;;9.88;8.75;;;;;;;;;;5039018;28;20214;-62
2022/08/31 08:48:25;;;;;;;9.40;8.50;;;;;;;;;;5043151;28;20201;-62
2022/08/31 08:50:52;;;;;;;11.00;8.70;;;;;;;;;;5058016;28;20553;-61
2022/08/31 08:53:21;;;;;;;12.77;9.90;;;;;;;;;;5058625;28;20213;-61
2022/08/31 08:55:47;;;;;;;14.15;10.38;;;;;;;;;;5058698;28;20417;-61
2022/08/31 08:58:18;;;;;;;13.93;8.77;;;;;;;;;;5058669;28;20434;-61
2022/08/31 09:00:46;;;;;;;9.57;8.60;;;;;;;;;;5058004;28;20259;-61
2022/08/31 09:03:19;;;;;;;11.05;9.57;;;;;;;;;;5057942;28;20213;-61
2022/08/31 09:05:55;;;;;;;14.43;9.15;;;;;;;;;;5059031;28;20225;-60
2022/08/31 09:08:30;;;;;;;15.02;8.90;;;;;;;;;;5047375;28;20212;-61
2022/08/31 09:11:00;;;;;;;10.75;9.60;;;;;;;;;;5058088;28;20208;-61
2022/08/31 09:13:30;;;;;;;11.20;9.50;;;;;;;;;;5057686;28;20216;-61
2022/08/31 09:16:03;;;;;;;10.63;9.50;;;;;;;;;;5059082;28;20551;-61
2022/08/31 09:18:38;;;;;;;13.07;9.23;;;;;;;;;;5058080;28;20236;-61
2022/08/31 09:21:06;;;;;;;10.38;9.23;;;;;;;;;;5058241;28;20213;-61
2022/08/31 09:23:36;;;;;;;16.67;9.57;;;;;;;;;;5058683;28;20443;-61
2022/08/31 09:26:03;;;;;;;11.68;8.82;;;;;;;;;;5058212;28;20232;-62
2022/08/31 09:28:33;;;;;;;10.50;8.70;;;;;;;;;;5045007;28;20277;-60
2022/08/31 09:30:59;;;;;;;9.95;8.88;;;;;;;;;;5038011;28;20225;-62
2022/08/31 09:33:27;;;;;;;10.15;9.13;;;;;;;;;;5037794;28;20213;-63
2022/08/31 09:36:12;;;;;;;11.48;8.70;;;;;;;;;;5038421;28;20297;-62
2022/08/31 09:38:40;;;;;;;9.15;8.35;;;;;;;;;;5037870;28;20233;-62
2022/08/31 09:41:17;;;;;;;12.30;8.82;;;;;;;;;;5037245;28;20405;-63
2022/08/31 09:43:44;;;;;;;12.52;9.20;;;;;;;;;;5037124;28;20205;-63
2022/08/31 09:46:12;;;;;;;13.23;9.25;;;;;;;;;;5036736;28;20225;-63
2022/08/31 09:48:42;;;;;;;10.82;9.15;;;;;;;;;;5037712;28;20418;-63
2022/08/31 09:51:08;;;;;;;12.70;9.88;;;;;;;;;;5039049;28;20269;-63
2022/08/31 09:56:25;;;;;;;11.93;9.07;;;;;;;;;;5057683;28;20623;-63
2022/08/31 09:58:53;;;;;;;9.63;8.52;;;;;;;;;;5057761;28;20252;-63
2022/08/31 10:01:21;;;;;;;13.73;8.93;;;;;;;;;;5056850;28;20212;-63
2022/08/31 10:03:48;;;;;;;9.57;8.25;;;;;;;;;;5037466;28;20213;-63
2022/08/31 10:06:36;;;;;;;10.18;8.32;;;;;;;;;;5039638;28;20221;-63
2022/08/31 10:09:07;;;;;;;11.88;7.88;;;;;;;;;;5042921;28;20419;-61
2022/08/31 10:11:34;;;;;;;9.38;8.38;;;;;;;;;;5057255;28;20308;-62
2022/08/31 10:14:07;;;;;;;9.73;8.23;;;;;;;;;;5042332;28;20216;-61
2022/08/31 10:16:35;;;;;;;10.60;7.85;;;;;;;;;;5056850;28;20212;-61
2022/08/31 10:19:04;;;;;;;11.05;7.97;;;;;;;;;;5057664;28;20593;-62
2022/08/31 10:21:37;;;;;;;12.13;7.53;;;;;;;;;;5056091;28;20543;-62
2022/08/31 10:24:19;;;;;;;8.45;7.63;;;;;;;;;;5056411;28;20532;-63
2022/08/31 10:26:47;;;;;;;13.07;7.68;;;;;;;;;;5045116;28;20214;-63
2022/08/31 10:29:15;;;;;;;8.30;7.50;;;;;;;;;;5036621;28;20593;-62
2022/08/31 10:31:44;;;;;;;10.45;7.75;;;;;;;;;;5048513;28;20240;-62
2022/08/31 10:36:58;;;;;;;10.02;7.05;;;;;;;;;;5045381;28;20441;-62
2022/08/31 10:39:28;;;;;;;10.40;8.13;;;;;;;;;;5055703;28;20213;-62
2022/08/31 10:41:55;;;;;;;9.02;7.40;;;;;;;;;;5055681;28;20205;-62
2022/08/31 10:44:25;;;;;;;8.75;6.72;;;;;;;;;;5056914;28;20239;-63
2022/08/31 10:46:53;;;;;;;8.98;7.10;;;;;;;;;;5055939;28;20387;-61
2022/08/31 10:49:20;;;;;;;7.70;7.03;;;;;;;;;;5055899;28;20212;-62
2022/08/31 10:51:49;;;;;;;8.02;7.15;;;;;;;;;;5048976;28;20217;-62
2022/08/31 10:54:27;;;;;;;11.95;7.80;;;;;;;;;;5036694;28;20213;-63
2022/08/31 10:56:59;;;;;;;8.20;7.32;;;;;;;;;;5036254;28;20225;-61
2022/08/31 10:59:30;;;;;;;14.40;7.75;;;;;;;;;;5056332;28;20263;-61
2022/08/31 11:02:00;;;;;;;8.65;6.78;;;;;;;;;;5056059;28;20213;-60
2022/08/31 11:04:44;;;;;;;8.43;6.95;;;;;;;;;;5056206;28;20213;-62
2022/08/31 11:07:15;;;;;;;12.70;8.02;;;;;;;;;;5056723;28;20568;-61
2022/08/31 11:09:44;;;;;;;8.80;7.18;;;;;;;;;;5055713;28;20213;-62
2022/08/31 11:12:20;;;;;;;8.98;6.93;;;;;;;;;;5055984;28;20208;-62
2022/08/31 11:15:01;;;;;;;8.85;6.55;;;;;;;;;;5056437;28;20223;-63
2022/08/31 11:17:39;;;;;;;9.00;6.95;;;;;;;;;;5056133;28;20229;-63
2022/08/31 11:20:23;;;;;;;9.80;6.93;;;;;;;;;;5055220;28;20212;-63
2022/08/31 11:23:09;;;;;;;7.75;6.30;;;;;;;;;;5055238;28;20288;-63
2022/08/31 11:25:57;;;;;;;10.27;7.20;;;;;;;;;;5053608;28;20254;-64
2022/08/31 11:28:32;;;;;;;13.20;7.80;;;;;;;;;;5032006;28;20501;-63
2022/08/31 11:31:00;;;;;;;11.18;7.93;;;;;;;;;;5035119;28;20217;-63
2022/08/31 11:33:27;;;;;;;10.27;7.70;;;;;;;;;;5035713;28;20214;-63
2022/08/31 11:36:04;;;;;;;13.00;7.22;;;;;;;;;;5036096;28;20205;-63
2022/08/31 11:38:48;;;;;;;9.18;7.50;;;;;;;;;;5036108;28;20233;-62
2022/08/31 11:41:32;;;;;;;11.18;7.28;;;;;;;;;;5043369;28;20496;-62
2022/08/31 11:44:00;;;;;;;8.82;6.47;;;;;;;;;;5055875;28;20213;-63
2022/08/31 11:46:42;;;;;;;15.75;6.55;;;;;;;;;;5055458;28;20220;-62
2022/08/31 11:49:10;;;;;;;9.65;6.55;;;;;;;;;;5044571;28;20228;-63
2022/08/31 11:51:39;;;;;;;8.48;6.90;;;;;;;;;;5034793;28;20213;-63
2022/08/31 11:54:11;;;;;;;7.57;6.88;;;;;;;;;;5036098;28;20241;-63
2022/08/31 11:56:38;;;;;;;11.02;6.75;;;;;;;;;;5035476;28;20533;-62
2022/08/31 11:59:25;;;;;;;11.63;7.07;;;;;;;;;;5035536;28;20237;-62
2022/08/31 12:01:52;;;;;;;8.18;7.07;;;;;;;;;;5039038;28;20213;-62
2022/08/31 12:04:40;;;;;;;10.27;6.03;;;;;;;;;;5055860;28;20276;-63
2022/08/31 12:07:07;;;;;;;8.10;6.03;;;;;;;;;;5044744;28;20679;-62
2022/08/31 12:09:46;;;;;;;6.80;5.95;;;;;;;;;;5038376;28;20210;-63
2022/08/31 12:12:22;;;;;;;8.48;6.63;;;;;;;;;;5039205;28;20380;-63
2022/08/31 12:14:55;;;;;;;7.40;5.75;;;;;;;;;;5040030;28;20213;-63
2022/08/31 12:17:25;;;;;;;13.73;7.18;;;;;;;;;;5048101;28;20285;-60
2022/08/31 12:20:01;;;;;;;9.07;6.78;;;;;;;;;;5058765;28;20215;-61
2022/08/31 12:25:27;;;;;;;9.20;6.03;;;;;;;;;;5056233;28;20212;-61
2022/08/31 12:28:01;;;;;;;7.40;6.22;;;;;;;;;;5039775;28;20540;-60
2022/08/31 12:30:29;;;;;;;10.77;7.13;;;;;;;;;;5038853;28;20206;-62
2022/08/31 12:32:58;;;;;;;13.15;7.50;;;;;;;;;;5039256;28;20272;-61
2022/08/31 12:35:25;;;;;;;10.98;6.95;;;;;;;;;;5040086;28;20210;-61
2022/08/31 12:37:57;;;;;;;10.30;6.97;;;;;;;;;;5038540;28;20237;-60
2022/08/31 12:40:24;;;;;;;7.00;6.40;;;;;;;;;;5038857;28;20213;-61
2022/08/31 12:42:54;;;;;;;10.93;6.78;;;;;;;;;;5038998;28;20209;-61
2022/08/31 12:45:28;;;;;;;7.72;6.97;;;;;;;;;;5039312;28;20228;-62
2022/08/31 12:48:00;;;;;;;10.02;7.00;;;;;;;;;;5037932;28;20209;-61
2022/08/31 12:50:30;;;;;;;11.20;7.18;;;;;;;;;;5038675;28;20235;-61
2022/08/31 12:53:08;;;;;;;10.93;7.18;;;;;;;;;;5037947;28;20220;-61
2022/08/31 12:55:40;;;;;;;14.52;7.18;;;;;;;;;;5038610;28;20551;-61
2022/08/31 12:58:16;;;;;;;7.50;6.57;;;;;;;;;;5038099;28;20553;-61
2022/08/31 13:00:43;;;;;;;8.88;6.15;;;;;;;;;;5037874;28;20579;-61
2022/08/31 13:03:19;;;;;;;14.90;7.07;;;;;;;;;;5037962;28;20653;-61
2022/08/31 13:05:58;;;;;;;10.77;6.45;;;;;;;;;;5038373;28;20275;-61
2022/08/31 13:08:26;;;;;;;13.82;7.40;;;;;;;;;;5039198;28;20213;-60
2022/08/31 13:10:52;;;;;;;7.07;6.47;;;;;;;;;;5037497;28;20213;-59
2022/08/31 13:13:23;;;;;;;15.15;7.15;;;;;;;;;;5038583;28;20482;-59
2022/08/31 13:15:49;;;;;;;10.77;7.20;;;;;;;;;;5038323;28;20213;-60
2022/08/31 13:18:21;;;;;;;15.75;6.57;;;;;;;;;;5038919;28;20266;-59
2022/08/31 13:20:47;;;;;;;12.73;9.25;;;;;;;;;;5038127;28;20280;-59
2022/08/31 13:23:15;;;;;;;12.80;7.25;;;;;;;;;;5038068;28;20213;-59
2022/08/31 13:25:43;;;;;;;11.25;6.85;;;;;;;;;;5045217;28;20205;-60
2022/08/31 13:28:18;;;;;;;8.73;6.60;;;;;;;;;;5038703;28;20205;-60
2022/08/31 13:30:54;;;;;;;8.48;6.78;;;;;;;;;;5037631;28;20220;-60
2022/08/31 13:33:23;;;;;;;8.75;6.88;;;;;;;;;;5037460;28;20259;-60
2022/08/31 13:35:51;;;;;;;9.20;6.72;;;;;;;;;;5037627;28;20410;-59
2022/08/31 13:38:35;;;;;;;10.63;6.78;;;;;;;;;;5038224;28;20221;-60
2022/08/31 13:41:01;;;;;;;9.90;6.70;;;;;;;;;;5036363;28;20213;-60
2022/08/31 13:43:28;;;;;;;6.97;6.32;;;;;;;;;;5037052;28;20391;-60
2022/08/31 13:45:56;;;;;;;11.93;7.20;;;;;;;;;;5037630;28;20279;-59
2022/08/31 13:48:28;;;;;;;12.02;7.57;;;;;;;;;;5054501;28;20550;-59
2022/08/31 13:51:00;;;;;;;7.97;6.90;;;;;;;;;;5056724;28;20508;-59
2022/08/31 13:53:38;;;;;;;9.30;6.88;;;;;;;;;;5057600;28;20211;-60
2022/08/31 13:56:53;;;;;;;10.00;7.38;;;;;;;;;;5057110;28;20212;-60
2022/08/31 13:59:18;;;;;;;8.48;6.40;;;;;;;;;;5057048;28;20278;-60
2022/08/31 14:01:46;;;;;;;11.68;6.45;;;;;;;;;;5056115;28;20523;-60
2022/08/31 14:04:42;;;;;;;7.78;7.10;;;;;;;;;;5057652;28;20224;-60
2022/08/31 14:07:14;;;;;;;9.85;6.90;;;;;;;;;;5048393;28;20212;-60
2022/08/31 14:09:43;;;;;;;11.90;6.72;;;;;;;;;;5056957;28;20255;-60
2022/08/31 14:12:10;;;;;;;10.00;6.68;;;;;;;;;;5056548;28;20213;-60
2022/08/31 14:14:39;;;;;;;9.73;6.80;;;;;;;;;;5057474;28;20220;-60
2022/08/31 14:17:06;;;;;;;8.88;6.75;;;;;;;;;;5056880;28;20251;-60
2022/08/31 14:19:37;;;;;;;12.38;6.93;;;;;;;;;;5056957;28;20235;-60
2022/08/31 14:22:27;;;;;;;8.80;6.90;;;;;;;;;;5057047;28;20243;-60
2022/08/31 14:24:54;;;;;;;12.38;7.22;;;;;;;;;;5056826;28;20208;-60
2022/08/31 14:27:20;;;;;;;9.07;6.63;;;;;;;;;;5039603;28;20213;-60
2022/08/31 14:29:46;;;;;;;9.98;6.30;;;;;;;;;;5048257;28;20266;-60
2022/08/31 14:32:13;;;;;;;8.90;6.50;;;;;;;;;;5055615;28;20231;-60
2022/08/31 14:34:46;;;;;;;10.98;6.97;;;;;;;;;;5056508;28;20220;-60
2022/08/31 14:37:15;;;;;;;13.07;6.88;;;;;;;;;;5056614;28;20547;-59
2022/08/31 14:39:46;;;;;;;10.68;7.60;;;;;;;;;;5056115;28;20231;-60
2022/08/31 14:42:15;;;;;;;10.73;7.70;;;;;;;;;;5056135;28;20627;-60
2022/08/31 14:44:43;;;;;;;11.02;6.70;;;;;;;;;;5056446;28;20254;-60
2022/08/31 14:47:11;;;;;;;9.68;6.15;;;;;;;;;;5056359;28;20220;-60
2022/08/31 14:49:44;;;;;;;7.00;6.30;;;;;;;;;;5055784;28;20584;-60
2022/08/31 14:52:11;;;;;;;9.98;5.97;;;;;;;;;;5056795;28;20385;-60
2022/08/31 14:54:38;;;;;;;15.63;7.55;;;;;;;;;;5055651;28;20578;-60
2022/08/31 14:57:08;;;;;;;9.15;6.28;;;;;;;;;;5055556;28;20227;-60
2022/08/31 14:59:38;;;;;;;8.50;5.97;;;;;;;;;;5055770;28;20559;-60